Terminal Aerodrome Forecast
Issued by NWS

Home | Current Version | Previous Version | Text Only | Print | Product List | Glossary On
Versions: 1 2 3 4 5 6 7 8 9 10 11 12 13 14 15 16 17
000
FTUS46 KLOX 180500 RRA
TAFLGB
TAF
KLGB 180544Z 1806/1906 VRB03KT P6SM SCT100
     FM181300 VRB03KT P6SM VCSH SCT035 BKN070
     FM181800 VRB03KT P6SM SCT035 SCT050
     FM182200 20006KT P6SM SCT035 SCT050
     FM190200 VRB03KT P6SM SCT025 SCT050=

USA.gov is the U.S. government's official web portal to all federal, state and local government web resources and services.